Time;durP1;ratioP1;P1;durP2;ratioP2;P2;SDS_P1;SDS_P2;PMS_P1;PMS_P2;Temp;Humidity;BMP_temperature;BMP_pressure;BME280_temperature;BME280_humidity;BME280_pressure;Samples;Min_cycle;Max_cycle;Signal;HPM_P1;HPM_P2
2022/05/25 00:00:45;;;;;;;2.40;1.20;;;11.30;99.90;;;;;;6386040;22;20051;-92
2022/05/25 00:03:10;;;;;;;2.83;1.25;;;11.10;99.90;;;;;;6386187;22;20020;-93
2022/05/25 00:05:36;;;;;;;2.73;1.40;;;11.00;99.90;;;;;;6386149;22;20038;-93
2022/05/25 00:08:03;;;;;;;2.42;1.20;;;11.00;99.90;;;;;;6385995;22;20085;-92
2022/05/25 00:28:37;;;;;;;2.75;1.38;;;10.50;99.90;;;;;;6302832;22;20023;-93
2022/05/25 00:31:02;;;;;;;2.40;1.30;;;10.50;99.90;;;;;;6386299;22;20025;-93
2022/05/25 00:33:28;;;;;;;3.60;1.53;;;10.50;99.90;;;;;;6385654;22;20249;-93
2022/05/25 00:49:03;;;;;;;2.70;1.50;;;10.50;99.90;;;;;;6303189;22;21642;-94
2022/05/25 00:52:04;;;;;;;4.15;1.98;;;10.50;99.90;;;;;;6385750;22;20047;-94
2022/05/25 00:54:37;;;;;;;4.38;2.13;;;10.50;99.90;;;;;;6385535;22;20343;-94
2022/05/25 02:40:48;;;;;;;8.13;4.40;;;10.30;99.90;;;;;;6270946;22;20028;-92
2022/05/25 02:43:15;;;;;;;6.80;3.67;;;10.30;99.90;;;;;;6244711;22;20024;-92
2022/05/25 02:45:50;;;;;;;6.15;3.33;;;10.40;99.90;;;;;;6245099;22;20016;-92
2022/05/25 02:50:51;;;;;;;8.45;4.60;;;10.40;99.90;;;;;;6435653;22;20022;-91
2022/05/25 02:53:58;;;;;;;;;;;;;;;;;;;;;
2022/05/25 02:56:42;;;;;;;7.03;3.70;;;10.40;99.90;;;;;;6432516;22;20010;-92
2022/05/25 02:59:08;;;;;;;7.18;4.10;;;10.40;99.90;;;;;;6408370;22;20047;-94
2022/05/25 03:02:34;;;;;;;7.10;4.00;;;10.40;99.90;;;;;;6409591;22;20006;-92
2022/05/25 04:59:11;;;;;;;8.90;4.50;;;11.00;99.90;;;;;;6273709;22;20195;-95
2022/05/25 05:01:56;;;;;;;8.10;4.25;;;11.00;99.90;;;;;;6246206;22;20024;-92
2022/05/25 05:04:22;;;;;;;7.30;3.78;;;11.10;99.90;;;;;;6246669;22;20460;-95
2022/05/25 05:06:49;;;;;;;8.40;3.80;;;11.20;99.90;;;;;;6248069;22;20042;-91
2022/05/25 05:09:15;;;;;;;6.93;3.80;;;11.30;99.90;;;;;;6247892;22;20095;-91
2022/05/25 05:12:02;;;;;;;8.32;3.70;;;11.30;99.90;;;;;;6271918;22;20528;-93
2022/05/25 05:14:28;;;;;;;8.18;3.97;;;11.40;99.90;;;;;;6246075;22;20064;-94
2022/05/25 05:28:01;;;;;;;6.88;3.78;;;12.10;99.90;;;;;;6271522;22;20379;-96
2022/05/25 05:30:33;;;;;;;7.47;3.75;;;12.20;99.90;;;;;;6246217;22;20026;-92
2022/05/25 06:05:14;;;;;;;6.95;2.95;;;13.30;99.90;;;;;;6271561;22;20049;-92
2022/05/25 06:07:40;;;;;;;7.17;3.87;;;13.30;99.90;;;;;;6245101;22;20028;-92
2022/05/25 06:10:06;;;;;;;7.93;3.50;;;13.30;99.90;;;;;;6245865;22;20261;-91
2022/05/25 06:13:04;;;;;;;6.55;3.35;;;13.40;99.90;;;;;;6245705;22;20019;-92
2022/05/25 06:21:23;;;;;;;5.93;2.90;;;13.70;99.90;;;;;;6271663;22;20027;-90
2022/05/25 06:23:49;;;;;;;5.22;2.78;;;13.80;99.90;;;;;;6245971;22;20016;-90
2022/05/25 06:26:16;;;;;;;5.60;2.60;;;13.80;99.90;;;;;;6246101;22;20019;-90
2022/05/25 06:28:43;;;;;;;7.32;2.80;;;13.80;99.90;;;;;;6271748;22;20020;-90
2022/05/25 06:31:08;;;;;;;6.80;2.78;;;13.90;99.90;;;;;;6246203;22;20060;-90
2022/05/25 06:33:34;;;;;;;5.70;2.67;;;14.00;99.90;;;;;;6271565;22;20019;-89
2022/05/25 06:36:18;;;;;;;6.68;2.58;;;14.10;99.90;;;;;;6246408;22;20027;-88
2022/05/25 06:38:44;;;;;;;5.63;2.72;;;14.30;99.90;;;;;;6246434;22;20340;-90
2022/05/25 06:41:10;;;;;;;;;;;14.50;99.90;;;;;;6246778;22;20141;-88
2022/05/25 06:43:49;;;;;;;4.65;2.05;;;14.70;99.90;;;;;;6271633;22;19924;-89
2022/05/25 06:46:19;;;;;;;6.20;2.10;;;15.00;99.90;;;;;;6246462;22;20400;-90
2022/05/25 06:48:50;;;;;;;5.10;2.42;;;15.10;99.90;;;;;;6245858;22;20099;-90
2022/05/25 06:51:26;;;;;;;4.75;1.90;;;15.30;99.90;;;;;;6247188;22;20019;-89
2022/05/25 06:53:52;;;;;;;3.80;1.70;;;15.40;99.90;;;;;;6271341;22;20062;-87
2022/05/25 06:56:18;;;;;;;3.97;2.00;;;15.50;99.90;;;;;;6245984;22;20012;-89
2022/05/25 06:58:47;;;;;;;4.07;1.70;;;15.70;99.90;;;;;;6246031;22;20452;-91
2022/05/25 07:01:13;;;;;;;4.80;1.90;;;15.90;99.90;;;;;;6246371;22;20071;-89
2022/05/25 07:03:39;;;;;;;4.93;2.10;;;16.00;99.90;;;;;;6271677;22;20026;-91
2022/05/25 07:06:09;;;;;;;3.75;1.80;;;16.20;99.90;;;;;;6245938;22;20012;-90
2022/05/25 07:08:54;;;;;;;3.05;1.50;;;16.70;99.90;;;;;;6246861;22;20016;-90
2022/05/25 07:11:21;;;;;;;5.20;1.70;;;17.40;99.90;;;;;;6246303;22;20094;-92
2022/05/25 07:13:47;;;;;;;3.25;1.60;;;18.00;99.90;;;;;;6247633;22;20490;-90
2022/05/25 07:16:15;;;;;;;3.00;1.40;;;18.60;99.90;;;;;;6248066;22;20073;-89
2022/05/25 07:18:44;;;;;;;4.32;1.90;;;19.00;99.90;;;;;;6246768;22;20016;-89
2022/05/25 07:21:25;;;;;;;3.90;1.63;;;19.30;99.90;;;;;;6271855;22;20020;-90
2022/05/25 07:24:28;;;;;;;4.38;1.90;;;19.50;99.90;;;;;;6271699;22;20016;-90
2022/05/25 07:27:18;;;;;;;3.05;1.42;;;19.40;99.90;;;;;;6246179;22;20020;-89
2022/05/25 07:29:44;;;;;;;3.55;1.40;;;19.20;99.90;;;;;;6245722;22;20020;-90
2022/05/25 07:32:11;;;;;;;2.95;1.35;;;18.80;99.90;;;;;;6245653;22;20023;-90
2022/05/25 07:34:50;;;;;;;4.30;1.63;;;18.50;99.90;;;;;;6245751;22;20024;-90
2022/05/25 07:37:38;;;;;;;2.67;1.25;;;18.10;99.90;;;;;;6271288;22;20023;-89
2022/05/25 07:40:11;;;;;;;2.58;1.25;;;17.70;99.90;;;;;;6245584;22;20023;-91
2022/05/25 07:42:40;;;;;;;5.50;1.95;;;17.40;99.90;;;;;;6245867;22;20080;-90
2022/05/25 07:45:07;;;;;;;3.70;1.52;;;17.10;99.90;;;;;;6245765;22;20020;-91
2022/05/25 07:47:34;;;;;;;3.40;1.42;;;17.00;99.90;;;;;;6245787;22;20058;-91
2022/05/25 07:50:00;;;;;;;3.53;1.50;;;16.80;99.90;;;;;;6271208;22;20098;-92
2022/05/25 07:52:30;;;;;;;2.75;1.40;;;16.70;99.90;;;;;;6245871;22;20019;-90
2022/05/25 07:54:57;;;;;;;3.35;1.10;;;16.60;99.90;;;;;;6245789;22;20023;-90
2022/05/25 07:57:24;;;;;;;2.85;1.10;;;16.60;99.90;;;;;;6245554;22;20020;-90
2022/05/25 07:59:49;;;;;;;2.95;1.20;;;16.50;99.90;;;;;;6245450;22;20433;-89
2022/05/25 08:08:22;;;;;;;3.50;1.60;;;16.40;99.90;;;;;;6272440;22;20420;-90
2022/05/25 08:10:52;;;;;;;4.85;1.98;;;16.30;99.90;;;;;;6245940;22;20047;-90
2022/05/25 08:13:18;;;;;;;3.30;1.50;;;16.30;99.90;;;;;;6271141;22;20019;-91
2022/05/25 08:15:45;;;;;;;3.63;1.70;;;16.20;99.90;;;;;;6245804;22;20035;-91
2022/05/25 08:18:13;;;;;;;3.13;1.42;;;16.20;99.90;;;;;;6245734;22;20100;-90
2022/05/25 08:20:51;;;;;;;5.50;1.63;;;16.30;99.90;;;;;;6245669;22;20016;-89
2022/05/25 08:23:17;;;;;;;2.83;1.55;;;16.20;99.90;;;;;;6245440;22;20026;-90
2022/05/25 08:25:44;;;;;;;3.17;1.60;;;16.30;99.90;;;;;;6271020;22;20020;-87
2022/05/25 08:28:10;;;;;;;3.60;1.75;;;16.30;99.90;;;;;;6245317;22;20018;-90
2022/05/25 08:30:39;;;;;;;4.47;1.77;;;16.30;99.90;;;;;;6244562;22;20408;-88
2022/05/25 08:33:20;;;;;;;2.90;1.45;;;16.20;99.90;;;;;;6270847;22;20356;-90
2022/05/25 08:36:10;;;;;;;3.83;1.70;;;16.20;99.90;;;;;;6244198;22;20019;-89
2022/05/25 09:10:15;;;;;;;3.13;1.27;;;16.40;99.90;;;;;;6268279;22;20033;-89
2022/05/25 09:12:58;;;;;;;2.78;1.00;;;16.50;99.90;;;;;;6384215;22;20030;-88
2022/05/25 09:15:32;;;;;;;2.58;1.10;;;16.50;99.90;;;;;;6384347;22;20015;-90
2022/05/25 09:18:05;;;;;;;2.28;1.20;;;16.50;99.90;;;;;;6411313;22;20054;-88
2022/05/25 09:20:40;;;;;;;2.45;1.15;;;16.50;99.90;;;;;;6384138;22;20083;-86
2022/05/25 09:23:06;;;;;;;2.85;1.20;;;16.60;99.90;;;;;;6411163;22;20020;-88
2022/05/25 09:25:32;;;;;;;3.50;1.27;;;16.60;99.90;;;;;;6410977;22;20019;-87
2022/05/25 09:28:07;;;;;;;4.10;1.40;;;16.50;99.90;;;;;;6384132;22;20015;-88
2022/05/25 09:30:37;;;;;;;3.72;1.40;;;16.50;99.90;;;;;;6384016;22;20029;-87
2022/05/25 09:33:31;;;;;;;2.22;1.10;;;16.50;99.90;;;;;;6383780;22;20011;-89
2022/05/25 09:36:15;;;;;;;3.40;1.42;;;16.50;99.90;;;;;;6368299;22;20019;-87
2022/05/25 09:38:43;;;;;;;4.15;1.40;;;16.50;99.90;;;;;;6384396;22;20016;-87
2022/05/25 09:41:13;;;;;;;2.28;1.02;;;16.60;99.90;;;;;;6384110;22;20015;-89
2022/05/25 09:43:40;;;;;;;3.47;1.13;;;16.60;99.90;;;;;;6383895;22;20019;-87
2022/05/25 09:46:23;;;;;;;2.10;1.10;;;16.70;99.90;;;;;;6411231;22;20015;-88
2022/05/25 09:49:00;;;;;;;2.60;1.17;;;16.70;99.90;;;;;;6384080;22;20069;-89
2022/05/25 09:51:49;;;;;;;3.50;1.20;;;16.80;99.90;;;;;;6384013;22;20019;-89
2022/05/25 09:54:26;;;;;;;2.83;1.27;;;16.80;99.90;;;;;;6383825;22;20054;-88
2022/05/25 09:56:54;;;;;;;;;;;16.80;99.90;;;;;;6384594;22;20448;-89
2022/05/25 09:59:42;;;;;;;2.05;1.00;;;16.70;99.90;;;;;;6410945;22;19919;-91
2022/05/25 10:02:33;;;;;;;3.25;1.10;;;16.70;99.90;;;;;;6383850;22;20015;-87
2022/05/25 10:05:13;;;;;;;2.85;1.40;;;16.70;99.90;;;;;;6384086;22;20386;-90
2022/05/25 10:07:49;;;;;;;2.63;1.35;;;16.60;99.90;;;;;;6383684;22;20019;-91
2022/05/25 10:10:22;;;;;;;3.00;1.38;;;16.60;99.90;;;;;;6384038;22;20026;-92
2022/05/25 10:13:13;;;;;;;2.42;1.13;;;16.70;99.90;;;;;;6302291;22;20436;-88
2022/05/25 10:15:39;;;;;;;3.10;1.40;;;16.70;99.90;;;;;;6382767;22;20019;-87
2022/05/25 10:18:05;;;;;;;3.10;1.48;;;16.80;99.90;;;;;;6383096;22;20022;-88
2022/05/25 10:20:53;;;;;;;3.00;1.52;;;16.80;99.90;;;;;;6410524;22;20341;-89
2022/05/25 10:23:21;;;;;;;3.88;1.63;;;16.80;99.90;;;;;;6382586;22;20090;-88
2022/05/25 10:25:50;;;;;;;2.80;1.35;;;16.80;99.90;;;;;;6410739;22;20418;-88
2022/05/25 10:29:03;;;;;;;2.22;1.13;;;16.80;99.90;;;;;;6411720;22;20015;-88
2022/05/25 10:37:39;;;;;;;2.88;1.40;;;16.70;99.90;;;;;;6411231;22;20027;-87
2022/05/25 10:40:08;;;;;;;4.32;1.40;;;16.60;99.90;;;;;;6383786;22;20045;-86
2022/05/25 10:43:01;;;;;;;3.13;1.30;;;16.50;99.90;;;;;;6410514;22;20428;-90
2022/05/25 10:45:51;;;;;;;2.78;1.20;;;16.50;99.90;;;;;;6383840;22;20019;-87
2022/05/25 10:48:45;;;;;;;3.03;1.58;;;16.50;99.90;;;;;;6383926;22;20034;-89
2022/05/25 10:51:18;;;;;;;3.65;1.60;;;16.40;99.90;;;;;;6410314;22;20019;-88
2022/05/25 10:57:40;;;;;;;4.13;1.50;;;16.50;99.90;;;;;;6380701;22;20028;-88
2022/05/25 11:00:19;;;;;;;3.15;1.63;;;16.60;99.90;;;;;;6393434;22;20019;-89
2022/05/25 11:03:06;;;;;;;2.72;1.48;;;16.60;99.90;;;;;;6410201;22;20046;-90
2022/05/25 11:06:10;;;;;;;3.35;1.67;;;16.60;99.90;;;;;;6383737;22;20452;-88
2022/05/25 11:08:54;;;;;;;3.67;1.90;;;16.50;99.90;;;;;;6310257;22;20023;-88
2022/05/25 11:12:05;;;;;;;3.53;1.83;;;16.40;99.90;;;;;;6385133;22;20329;-87
2022/05/25 11:14:58;;;;;;;4.13;1.83;;;16.40;99.90;;;;;;6337718;22;20098;-87
2022/05/25 11:18:01;;;;;;;4.43;2.40;;;16.40;99.90;;;;;;6412605;22;20019;-89
2022/05/25 11:20:40;;;;;;;4.50;2.28;;;16.20;99.90;;;;;;6385559;22;20016;-89
2022/05/25 11:23:20;;;;;;;4.60;2.42;;;16.00;99.90;;;;;;6412320;22;20027;-87
2022/05/25 11:25:57;;;;;;;4.63;2.00;;;15.80;99.90;;;;;;6412083;22;20027;-88
2022/05/25 11:28:51;;;;;;;3.25;1.65;;;15.40;99.90;;;;;;6303643;22;20023;-88
2022/05/25 11:31:29;;;;;;;3.72;1.58;;;15.10;99.90;;;;;;6303676;22;20051;-88
2022/05/25 11:34:24;;;;;;;3.58;1.30;;;14.90;99.90;;;;;;6385551;22;20463;-89
2022/05/25 11:37:21;;;;;;;2.60;1.25;;;14.80;99.90;;;;;;6412478;22;20022;-90
2022/05/25 11:40:08;;;;;;;3.95;1.30;;;14.80;99.90;;;;;;6412498;22;20022;-91
2022/05/25 11:42:56;;;;;;;;;;;14.80;99.90;;;;;;6413066;22;20007;-91
2022/05/25 11:46:01;;;;;;;2.63;1.20;;;14.90;99.90;;;;;;6413151;22;19922;-91
2022/05/25 11:48:59;;;;;;;2.92;1.50;;;15.00;99.90;;;;;;6385560;22;20079;-91
2022/05/25 11:51:39;;;;;;;3.17;1.50;;;15.10;99.90;;;;;;6376450;22;20026;-90
2022/05/25 11:54:34;;;;;;;2.88;1.73;;;15.20;99.90;;;;;;6385714;22;20042;-90
2022/05/25 11:57:19;;;;;;;3.85;2.05;;;15.40;99.90;;;;;;6385352;22;20027;-91
2022/05/25 12:00:19;;;;;;;4.00;2.10;;;15.60;99.90;;;;;;6385585;22;20086;-92
2022/05/25 12:03:16;;;;;;;5.38;2.00;;;16.00;99.90;;;;;;6385458;22;20020;-91
2022/05/25 12:05:47;;;;;;;3.83;2.13;;;16.10;99.90;;;;;;6385386;22;20451;-92
2022/05/25 12:08:17;;;;;;;5.38;2.30;;;16.20;99.90;;;;;;6304090;22;20019;-92
2022/05/25 12:11:12;;;;;;;5.20;2.70;;;16.20;99.90;;;;;;6407626;22;20013;-92
2022/05/25 12:14:00;;;;;;;4.28;2.38;;;16.30;99.90;;;;;;6408089;22;20438;-95
2022/05/25 12:16:44;;;;;;;5.75;3.25;;;16.20;99.90;;;;;;6407248;22;20010;-91
2022/05/25 12:19:27;;;;;;;4.90;2.55;;;16.20;99.90;;;;;;6407280;22;20013;-92
2022/05/25 12:22:05;;;;;;;5.43;2.92;;;16.00;99.90;;;;;;6406641;22;20013;-89
2022/05/25 12:24:39;;;;;;;4.63;2.38;;;15.90;99.90;;;;;;6406783;22;20425;-88
2022/05/25 12:27:10;;;;;;;3.25;1.77;;;15.90;99.90;;;;;;6433912;22;20080;-90
2022/05/25 12:30:10;;;;;;;3.60;1.30;;;16.00;99.90;;;;;;6407285;22;20342;-90
2022/05/25 12:32:38;;;;;;;2.60;1.30;;;16.00;99.90;;;;;;6391648;22;20017;-91
2022/05/25 12:35:11;;;;;;;2.47;1.10;;;16.20;99.90;;;;;;6407543;22;20059;-90
2022/05/25 12:37:46;;;;;;;2.63;1.33;;;16.40;99.90;;;;;;6407185;22;20017;-93
2022/05/25 12:40:31;;;;;;;2.03;1.10;;;16.60;99.90;;;;;;6406935;22;20013;-89
2022/05/25 12:42:57;;;;;;;1.95;1.10;;;16.70;99.90;;;;;;6406668;22;20044;-90
2022/05/25 12:48:30;;;;;;;2.55;0.98;;;16.70;99.90;;;;;;6433568;22;19913;-91
2022/05/25 12:51:07;;;;;;;2.28;1.00;;;16.70;99.90;;;;;;6406689;22;20010;-89
2022/05/25 12:53:38;;;;;;;2.22;1.13;;;16.70;99.90;;;;;;6433699;22;20013;-88
2022/05/25 12:56:26;;;;;;;4.00;1.33;;;16.70;99.90;;;;;;6406742;22;20088;-88
2022/05/25 12:59:10;;;;;;;;;;;16.60;99.90;;;;;;6407072;22;20014;-88
2022/05/25 13:01:42;;;;;;;1.60;0.38;;;16.60;99.90;;;;;;6399360;22;20391;-90
2022/05/25 13:04:10;;;;;;;1.83;0.47;;;16.70;99.90;;;;;;6406473;22;20010;-91
2022/05/25 13:06:37;;;;;;;0.82;0.35;;;16.90;99.90;;;;;;6433327;22;20017;-91
2022/05/25 13:09:08;;;;;;;0.77;0.20;;;17.00;99.90;;;;;;6427819;22;20088;-91
2022/05/25 13:16:15;;;;;;;0.68;0.15;;;17.30;99.90;;;;;;6411791;22;20068;-92
2022/05/25 13:18:48;;;;;;;1.83;0.20;;;17.40;99.90;;;;;;6409159;22;20344;-92
2022/05/25 13:21:32;;;;;;;0.63;0.20;;;17.40;99.90;;;;;;6384989;22;20053;-93
2022/05/25 13:24:25;;;;;;;0.85;0.20;;;17.40;99.90;;;;;;6409477;22;20056;-88
2022/05/25 13:27:42;;;;;;;0.52;0.15;;;17.40;99.90;;;;;;6382488;22;20042;-91
2022/05/25 13:30:31;;;;;;;2.50;0.30;;;17.30;99.90;;;;;;6330475;22;20011;-89
2022/05/25 13:33:01;;;;;;;1.55;0.10;;;17.40;98.20;;;;;;6303650;22;20016;-92
2022/05/25 13:35:47;;;;;;;0.73;0.20;;;17.50;99.40;;;;;;6384974;22;20091;-91
2022/05/25 13:38:28;;;;;;;0.50;0.17;;;17.50;98.50;;;;;;6384612;22;20019;-89
2022/05/25 13:41:02;;;;;;;0.52;0.17;;;17.50;98.50;;;;;;6385258;22;20054;-90
2022/05/25 13:43:55;;;;;;;0.40;0.30;;;17.40;98.20;;;;;;6412838;22;20041;-91
2022/05/25 13:46:45;;;;;;;2.63;0.30;;;17.30;98.10;;;;;;6413982;22;20019;-91
2022/05/25 13:49:31;;;;;;;0.55;0.17;;;17.30;96.50;;;;;;6415342;22;20125;-93
2022/05/25 13:52:17;;;;;;;1.35;0.20;;;17.20;96.90;;;;;;6388809;22;20107;-90
2022/05/25 13:54:46;;;;;;;0.40;0.15;;;17.20;97.30;;;;;;6390230;22;20015;-93
2022/05/25 13:57:24;;;;;;;0.55;0.10;;;17.10;97.20;;;;;;6384682;22;20078;-93
2022/05/25 13:59:50;;;;;;;1.70;0.30;;;17.00;96.80;;;;;;6384400;22;20019;-91
2022/05/25 14:02:27;;;;;;;1.00;0.28;;;17.00;96.70;;;;;;6384836;22;20015;-92
2022/05/25 14:04:57;;;;;;;1.52;0.15;;;16.90;97.00;;;;;;6384138;22;20094;-93
2022/05/25 14:07:50;;;;;;;0.30;0.20;;;16.90;97.20;;;;;;6384787;22;20067;-94
2022/05/25 14:10:55;;;;;;;0.85;0.20;;;16.90;97.40;;;;;;6385195;22;20098;-93
2022/05/25 14:13:40;;;;;;;0.80;0.20;;;16.90;97.30;;;;;;6385012;22;20051;-93
2022/05/25 14:16:15;;;;;;;0.35;0.20;;;16.90;97.60;;;;;;6411395;22;20019;-89
2022/05/25 14:18:58;;;;;;;0.35;0.20;;;17.00;98.00;;;;;;6384604;22;20014;-93
2022/05/25 14:21:40;;;;;;;0.52;0.20;;;17.00;97.80;;;;;;6384570;22;20018;-95
2022/05/25 14:24:18;;;;;;;0.40;0.30;;;17.00;97.60;;;;;;6411286;22;20018;-92
2022/05/25 14:26:55;;;;;;;1.02;0.20;;;16.90;97.30;;;;;;6384702;22;20033;-93
2022/05/25 14:29:26;;;;;;;0.52;0.30;;;16.90;96.90;;;;;;6384523;22;20016;-92
2022/05/25 14:32:17;;;;;;;0.40;0.25;;;16.90;96.70;;;;;;6384399;22;20015;-95
2022/05/25 14:34:46;;;;;;;1.55;0.20;;;16.80;97.10;;;;;;6372109;22;20348;-93
2022/05/25 14:37:19;;;;;;;0.45;0.20;;;16.80;97.10;;;;;;6384230;22;20040;-93
2022/05/25 14:39:46;;;;;;;0.55;0.20;;;16.80;97.20;;;;;;6411091;22;20019;-90
2022/05/25 14:42:21;;;;;;;0.30;0.20;;;16.80;97.10;;;;;;6385221;22;20022;-93
2022/05/25 14:45:32;;;;;;;1.58;0.20;;;16.90;96.80;;;;;;6413290;22;20073;-92
2022/05/25 14:48:12;;;;;;;1.08;0.30;;;16.80;97.00;;;;;;6413461;22;20079;-95
2022/05/25 14:50:56;;;;;;;1.55;0.20;;;16.80;97.10;;;;;;6386076;22;20015;-90
2022/05/25 14:53:22;;;;;;;0.95;0.20;;;16.80;97.10;;;;;;6386307;22;20019;-94
2022/05/25 14:55:47;;;;;;;1.20;0.30;;;16.80;97.50;;;;;;6386613;22;20151;-92
2022/05/25 14:58:24;;;;;;;1.00;0.10;;;16.80;97.50;;;;;;6387881;22;20015;-93
2022/05/25 15:00:55;;;;;;;0.35;0.20;;;16.80;97.70;;;;;;6386715;22;20475;-95
2022/05/25 15:03:50;;;;;;;0.47;0.20;;;16.80;97.60;;;;;;6387018;22;20027;-92
2022/05/25 15:06:56;;;;;;;0.20;0.20;;;16.80;97.40;;;;;;6415103;22;20321;-93
2022/05/25 15:09:37;;;;;;;1.63;0.20;;;16.90;96.90;;;;;;6287155;22;20026;-92
2022/05/25 15:12:17;;;;;;;0.30;0.13;;;16.80;96.60;;;;;;6404753;22;20049;-96
2022/05/25 15:20:49;;;;;;;0.75;0.20;;;16.70;94.10;;;;;;6415382;22;20094;-96
2022/05/25 15:23:44;;;;;;;1.85;0.30;;;16.70;94.60;;;;;;6305568;22;20053;-93
2022/05/25 23:58:24;;;;;;;6.80;2.40;;;14.50;99.90;;;;;;6300432;22;20024;-93
